Robeline, Louisiana
Current Conditions -  °F | °C
As of 3:35 PM on Thursday 23 Oct 2014 (Local Time) from KIER Reporting Station
Clear Clear  
Wind Chill: 67°   Ceiling: Unl
Heat Index: 67°   Visibility: 10mi
Dew Point: 51°   Wind: 3mph
Humidity: 55%   Direction: 340°NNW
Pressure: 30.12"   Gusts: NA
Location:  31.69°N, 93.3°W
Report Text: KIER 232035Z AUTO 34003KT 10SM CLR 20/11 A3012 RMK AO2 T01970105
Loading
Personal Weather Stations






























Interactive Weather Map
Tropical Storm Tracking
New forecast layout! Learn more

10-Day Weather Forecast

Advertisements
Track Severe Weather on mobile